Latest Weather Observations for Canberra

IDN60801

Issued at 6:32 pm EST Friday 28 July 2017 (issued every 30 minutes, with the page automatically refreshed every 10 minutes)

About weather observations | Map of weather stations | Latest weather observations for NSW | Other Formats
Station Details ID: 070351 Name: CANBERRA AIRPORT Lat: -35.31 Lon: 149.20 Height: 577.05 m
Data from the previous 72 hours. | See also: Recent months at Canberra
Date/Time
EST
Temp
°C
App
Temp
°C
Dew
Point
°C
Rel
Hum
%
Delta-T
°C
Wind Press
QNH
hPa
Press
MSL
hPa
Rain since
9am
mm
Dir  Spd
km/h
Gust
km/h
Spd
kts
Gust
kts
28/06:00pm 8.2 3.2 1.1 61 3.0 WNW 17 26 9 14 1019.6 1020.9 0.0
28/05:30pm 9.0 3.0 1.2 58 3.3 WNW 22 30 12 16 1019.3 1020.5 0.0
28/05:00pm 10.2 3.4 0.8 52 4.0 WNW 26 33 14 18 1018.7 1019.9 0.0
28/04:30pm 11.3 5.7 1.0 49 4.4 WNW 20 32 11 17 1018.2 1019.4 0.0
28/04:00pm 11.9 5.2 1.3 48 4.6 WNW 26 35 14 19 1017.5 1018.7 0.0
28/03:30pm 12.5 6.1 1.2 46 5.0 WNW 24 32 13 17 1017.1 1018.3 0.0
28/03:00pm 13.0 5.9 1.4 45 5.1 WNW 28 35 15 19 1016.9 1018.1 0.0
28/02:30pm 13.3 6.0 -0.3 39 5.8 WNW 28 37 15 20 1016.6 1017.8 0.0
28/02:00pm 13.6 6.2 -0.4 38 6.0 WNW 28 37 15 20 1016.5 1017.6 0.0
28/01:30pm 13.6 6.9 -0.8 37 6.1 W 24 35 13 19 1016.5 1017.6 0.0
28/01:00pm 13.0 6.3 -1.0 38 5.9 W 24 33 13 18 1016.7 1017.9 0.0
28/12:30pm 12.6 6.2 0.7 44 5.2 WSW 24 35 13 19 1016.8 1018.0 0.0
28/12:00pm 11.7 4.3 1.6 50 4.4 W 30 39 16 21 1017.1 1018.3 0.0
28/11:30am 11.9 6.3 1.5 49 4.6 WSW 20 35 11 19 1017.2 1018.4 0.0
28/11:00am 11.7 5.9 2.5 53 4.1 W 22 32 12 17 1017.1 1018.3 0.0
28/10:30am 10.9 4.8 2.7 57 3.7 W 24 35 13 19 1016.8 1018.0 0.0
28/10:00am 10.1 5.1 3.4 63 3.0 W 19 28 10 15 1017.0 1018.2 0.0
28/09:30am 8.8 3.2 3.2 68 2.5 WNW 22 33 12 18 1016.6 1017.8 0.0
28/09:00am 8.2 2.5 2.9 69 2.3 WNW 22 35 12 19 1016.4 1017.5 1.8
28/08:30am 7.0 0.3 5.5 90 0.7 NNW 30 37 16 20 1015.2 1016.4 1.8
28/08:00am 5.9 0.2 4.9 93 0.4 NNW 24 32 13 17 1015.7 1016.9 1.8
28/07:30am 5.7 -1.5 5.0 95 0.3 NNW 32 39 17 21 1015.4 1016.6 1.8
28/07:00am 5.8 -1.4 4.9 94 0.4 NNW 32 41 17 22 1015.4 1016.6 1.8
28/06:30am 6.3 0.7 5.4 94 0.4 NNW 24 33 13 18 1015.6 1016.8 1.8
28/06:00am 6.0 0.4 5.3 95 0.3 N 24 33 13 18 1015.5 1016.7 1.6
28/05:30am 5.5 0.6 5.1 97 0.2 NNW 20 30 11 16 1016.2 1017.3 0.8
28/05:00am 5.8 1.8 4.8 93 0.4 NNW 15 19 8 10 1016.7 1017.9 0.6
28/04:30am 5.8 2.3 3.5 85 1.0 NNW 11 19 6 10 1016.7 1017.9 0.2
28/04:00am 6.1 1.4 3.1 81 1.3 NNW 17 26 9 14 1016.6 1017.8 0.0
28/03:30am 5.9 1.4 2.2 77 1.6 NNW 15 20 8 11 1016.6 1017.8 0.0
28/03:00am 5.5 1.3 1.4 75 1.7 NNW 13 22 7 12 1016.6 1017.8 0.0
28/02:30am 1.9 -1.7 0.3 89 0.6 E 9 11 5 6 1016.5 1017.6 0.0
28/02:00am 0.9 -3.3 -1.0 87 0.7 SW 11 13 6 7 1016.9 1018.1 0.0
28/01:30am 1.9 -1.0 -1.3 79 1.2 SW 4 9 2 5 1016.8 1018.0 0.0
28/01:00am 2.3 -1.1 -0.4 82 1.0 N 7 9 4 5 1017.2 1018.4 0.0
28/12:30am 2.5 -0.8 -1.5 75 1.5 NE 6 9 3 5 1018.4 1019.6 0.0
28/12:00am 3.0 -0.4 -0.3 79 1.3 SE 7 7 4 4 1018.9 1020.1 0.0
 
Date/Time
EST
Temp
°C
App
Temp
°C
Dew
Point
°C
Rel
Hum
%
Delta-T
°C
Wind Press
QNH
hPa
Press
MSL
hPa
Rain since
9am
mm
Dir  Spd
km/h
Gust
km/h
Spd
kts
Gust
kts
27/11:30pm 2.9 0.8 -1.1 75 1.5 CALM 0 9 0 5 1019.6 1020.9 0.0
27/11:00pm 4.1 0.4 0.1 75 1.6 NE 9 11 5 6 1020.0 1021.2 0.0
27/10:30pm 2.8 0.6 -1.2 75 1.5 CALM 0 0 0 0 1020.5 1021.7 0.0
27/10:00pm 3.3 -0.2 -1.6 70 1.8 N 7 9 4 5 1020.8 1022.0 0.0
27/09:30pm 2.9 0.7 -1.5 73 1.6 CALM 0 7 0 4 1020.7 1021.9 0.0
27/09:00pm 2.7 0.5 -1.5 74 1.6 CALM 0 0 0 0 1020.4 1021.6 0.0
27/08:30pm 5.0 0.9 -0.2 69 2.0 N 11 13 6 7 1020.4 1021.6 0.0
27/08:00pm 5.7 1.3 0.1 67 2.2 N 13 15 7 8 1020.6 1021.8 0.0
27/07:30pm 6.4 1.2 0.3 65 2.5 N 17 19 9 10 1021.0 1022.3 0.0
27/07:00pm 6.2 1.8 0.5 67 2.3 N 13 15 7 8 1021.2 1022.5 0.0
27/06:30pm 6.4 2.8 0.3 65 2.5 NNE 9 11 5 6 1021.1 1022.4 0.0
27/06:00pm 6.6 2.6 0.3 64 2.5 N 11 13 6 7 1021.0 1022.3 0.0
27/05:30pm 7.4 3.1 0.8 63 2.7 N 13 15 7 8 1020.9 1022.1 0.0
27/05:00pm 8.5 4.3 1.4 61 3.0 N 13 17 7 9 1021.0 1022.3 0.0
27/04:30pm 10.4 5.5 2.0 56 3.7 NNW 17 22 9 12 1021.0 1022.3 0.0
27/04:00pm 11.2 5.9 1.7 52 4.1 NNW 19 24 10 13 1020.9 1022.1 0.0
27/03:30pm 11.4 6.1 1.6 51 4.3 NNW 19 26 10 14 1021.1 1022.4 0.0
27/03:00pm 11.9 7.3 1.8 50 4.4 N 15 19 8 10 1021.2 1022.5 0.0
27/02:30pm 11.5 6.5 1.2 49 4.5 N 17 20 9 11 1021.4 1022.7 0.0
27/02:00pm 11.7 7.1 1.6 50 4.4 NNW 15 20 8 11 1022.0 1023.2 0.0
27/01:30pm 10.5 6.8 2.4 57 3.6 N 11 17 6 9 1022.2 1023.4 0.0
27/01:00pm 9.3 6.1 2.9 64 2.8 NW 9 13 5 7 1023.0 1024.3 0.0
27/12:30pm 8.6 6.1 3.8 72 2.2 NNW 6 11 3 6 1023.6 1024.8 0.0
27/12:00pm 6.8 4.1 3.6 80 1.4 W 7 11 4 6 1024.3 1025.6 0.0
27/11:30am 5.4 2.2 3.3 86 0.9 W 9 15 5 8 1024.8 1026.1 0.0
27/11:00am 4.4 2.3 3.8 96 0.3 WNW 4 7 2 4 1025.1 1026.4 0.0
27/10:30am 3.4 1.6 3.3 99 0.0 NNW 2 7 1 4 1025.6 1026.9 0.0
27/10:23am 3.3 0.5 3.2 99 0.0 WNW 7 9 4 5 1025.8 1027.1 0.0
27/10:10am 2.9 0.2 2.8 99 0.0 NW 6 11 3 6 1025.9 1027.2 0.0
27/10:00am 2.6 -0.3 2.5 99 0.0 NNW 7 9 4 5 1025.8 1027.1 0.0
27/09:30am 1.9 -0.9 1.8 99 0.0 E 6 9 3 5 1026.1 1027.4 0.0
27/09:21am 1.7 -1.4 1.6 99 0.0 E 7 9 4 5 1026.1 1027.4 0.0
27/09:00am 1.0 -1.6 0.9 99 0.0 W 4 7 2 4 1026.1 1027.4 0.0
27/08:48am 0.9 -2.1 0.8 99 0.0 SSW 6 7 3 4 1026.0 1027.3 0.0
27/08:42am 0.7 -2.3 0.6 99 0.0 SSW 6 7 3 4 1025.8 1027.1 0.0
27/08:30am 0.3 -3.0 0.2 99 0.0 S 7 9 4 5 1025.6 1026.9 0.0
27/08:17am -0.2 -3.9 -0.3 99 0.0 SSW 9 9 5 5 1025.6 1026.9 0.0
27/08:00am -0.7 -4.5 -0.8 99 0.0 SSW 9 9 5 5 1025.4 1026.7 0.0
27/07:49am 0.0 -3.1 -0.1 99 0.0 SE 6 9 3 5 1025.1 1026.4 0.0
27/07:30am -0.5 -3.3 -0.6 99 0.0 SE 4 9 2 5 1024.7 1026.0 0.0
27/07:15am -0.6 -3.4 -0.7 99 0.0 SSE 4 7 2 4 1024.6 1025.9 0.0
27/07:00am -0.8 -2.9 -0.9 99 0.0 CALM 0 0 0 0 1024.3 1025.6 0.0
27/06:41am - - - - - NNE 2 6 1 3 - - -
27/06:30am -1.1 -4.6 -1.2 99 0.0 NE 7 7 4 4 1023.9 1025.2 0.0
27/06:00am -2.7 -6.2 -2.8 99 -0.1 NNE 6 7 3 4 1023.9 1025.2 0.0
27/05:30am -3.5 -7.3 -3.6 99 -0.1 SE 7 9 4 5 1023.4 1024.7 0.0
27/05:00am -2.7 -6.4 -2.8 99 -0.1 SE 7 11 4 6 1023.1 1024.4 0.0
27/04:30am -2.0 -5.6 -2.1 99 -0.1 NE 7 9 4 5 1023.3 1024.6 0.0
27/04:25am -2.3 -6.3 -2.4 99 -0.1 NNE 9 13 5 7 1023.4 1024.7 0.0
27/04:00am -3.4 -5.9 -3.8 97 0.0 CALM 0 4 0 2 1023.4 1024.7 0.0
27/03:35am -1.6 -5.1 -1.7 99 0.0 SE 7 9 4 5 1023.3 1024.6 0.0
27/03:30am -1.8 -5.4 -1.9 99 0.0 SE 7 9 4 5 1023.4 1024.7 0.0
27/03:06am -1.1 -3.3 -1.2 99 0.0 CALM 0 0 0 0 1023.6 1024.8 0.0
27/03:00am -0.8 -2.9 -0.9 99 0.0 CALM 0 0 0 0 1023.4 1024.7 0.0
27/02:30am -0.6 -4.0 -0.7 99 0.0 SE 7 9 4 5 1023.2 1024.5 0.0
27/02:05am -1.4 -4.7 -1.5 99 0.0 S 6 7 3 4 1023.2 1024.5 0.0
27/02:00am -1.6 -5.0 -1.7 99 0.0 S 6 7 3 4 1023.2 1024.5 0.0
27/01:47am -0.8 -4.2 -0.9 99 0.0 SSE 7 9 4 5 1023.1 1024.4 0.0
27/01:30am 0.3 -2.0 0.2 99 0.0 SSE 2 7 1 4 1023.0 1024.3 0.0
27/01:00am -0.1 -2.2 -0.5 97 0.1 CALM 0 0 0 0 1022.6 1023.9 0.0
27/12:30am 0.0 -2.1 -0.8 94 0.3 CALM 0 0 0 0 1022.6 1023.9 0.0
27/12:00am 2.5 -0.9 1.6 94 0.4 ENE 9 13 5 7 1022.6 1023.9 0.0
 
Date/Time
EST
Temp
°C
App
Temp
°C
Dew
Point
°C
Rel
Hum
%
Delta-T
°C
Wind Press
QNH
hPa
Press
MSL
hPa
Rain since
9am
mm
Dir  Spd
km/h
Gust
km/h
Spd
kts
Gust
kts
26/11:30pm 1.9 -2.0 0.9 93 0.4 ESE 11 13 6 7 1022.4 1023.7 0.0
26/11:00pm 2.9 -0.6 1.0 87 0.7 ESE 9 13 5 7 1022.2 1023.4 0.0
26/10:30pm 4.6 0.9 2.5 86 0.9 NNE 11 15 6 8 1022.0 1023.2 0.0
26/10:00pm 4.4 0.2 1.9 84 1.0 NW 13 17 7 9 1021.5 1022.8 0.0
26/09:30pm 5.6 1.4 1.5 75 1.7 NNW 13 17 7 9 1021.5 1022.8 0.0
26/09:00pm 7.4 2.7 2.9 73 1.9 WNW 17 22 9 12 1021.2 1022.5 0.0
26/08:30pm 8.2 3.7 2.2 66 2.6 NW 15 20 8 11 1021.3 1022.6 0.0
26/08:00pm 7.5 4.1 1.8 67 2.4 NW 9 15 5 8 1021.4 1022.7 0.0
26/07:30pm 7.9 3.4 2.0 66 2.5 NW 15 19 8 10 1021.0 1022.3 0.0
26/07:00pm 8.0 2.7 1.6 64 2.7 WNW 19 24 10 13 1020.5 1021.7 0.0
26/06:30pm 8.4 3.8 1.8 63 2.8 NW 15 20 8 11 1020.4 1021.6 0.0
26/06:00pm 8.7 3.7 1.6 61 3.0 NW 17 20 9 11 1020.1 1021.3 0.0
26/05:30pm 9.0 3.4 1.4 59 3.2 WNW 20 28 11 15 1019.5 1020.8 0.0
26/05:00pm 9.8 3.5 1.7 57 3.5 WNW 24 32 13 17 1019.1 1020.3 0.0
26/04:30pm 10.9 4.6 1.4 52 4.1 WNW 24 32 13 17 1018.6 1019.8 0.0
26/04:00pm 11.4 5.3 2.7 55 3.9 WNW 24 39 13 21 1018.1 1019.3 0.0
26/03:30pm 10.8 4.2 1.9 54 3.9 WNW 26 37 14 20 1017.8 1019.0 0.0
26/03:00pm 12.5 5.9 1.8 48 4.7 WNW 26 37 14 20 1017.5 1018.7 0.0
26/02:30pm 11.4 4.7 1.6 51 4.3 WNW 26 35 14 19 1017.5 1018.7 0.0
26/02:00pm 12.2 5.2 2.1 50 4.5 WNW 28 41 15 22 1017.1 1018.3 0.0
26/01:49pm 11.8 4.0 2.0 51 4.3 WNW 32 50 17 27 1017.0 1018.2 0.0
26/01:30pm 12.2 4.3 2.1 50 4.5 WNW 33 44 18 24 1017.2 1018.4 0.0
26/01:00pm 12.6 4.7 2.2 49 4.7 WNW 33 41 18 22 1017.0 1018.2 0.0
26/12:30pm 12.4 4.6 2.0 49 4.6 WNW 32 39 17 21 1017.0 1018.2 0.0
26/12:00pm 11.7 5.4 1.4 49 4.5 WNW 24 32 13 17 1017.1 1018.3 0.0
26/11:30am 11.8 4.3 0.9 47 4.7 WNW 30 41 16 22 1017.5 1018.7 0.0
26/11:00am 12.7 5.9 3.1 52 4.4 WNW 28 39 15 21 1017.5 1018.7 0.0
26/10:30am 11.1 4.6 2.7 56 3.8 WNW 26 35 14 19 1017.8 1019.0 0.0
26/10:00am 10.9 5.4 4.1 63 3.1 WNW 22 35 12 19 1017.8 1019.0 0.0
26/09:30am 10.6 3.9 3.9 63 3.1 NW 28 39 15 21 1017.2 1018.4 0.0
26/09:00am 10.3 3.7 4.0 65 2.9 WNW 28 41 15 22 1016.9 1018.1 0.2
26/08:30am 10.4 3.9 4.5 67 2.7 WNW 28 46 15 25 1016.5 1017.6 0.2
26/08:11am 9.7 2.8 4.7 71 2.3 WNW 30 48 16 26 1016.3 1017.4 0.2
26/08:00am 9.4 2.5 4.8 73 2.1 NW 30 43 16 23 1016.0 1017.2 0.2
26/07:30am 8.7 1.8 4.5 75 1.9 NW 30 41 16 22 1015.7 1016.9 0.2
26/07:00am 8.5 2.3 4.1 74 2.0 NW 26 33 14 18 1015.5 1016.7 0.2
26/06:30am 8.2 2.0 4.2 76 1.8 WNW 26 35 14 19 1015.2 1016.4 0.2
26/06:00am 8.0 2.6 4.6 79 1.5 NW 22 32 12 17 1015.1 1016.2 0.2
26/05:30am 8.1 2.7 4.7 79 1.6 NW 22 26 12 14 1015.1 1016.2 0.2
26/05:00am 7.8 2.8 4.6 80 1.5 NW 20 24 11 13 1015.3 1016.5 0.2
26/04:30am 7.9 3.5 4.5 79 1.5 NW 17 20 9 11 1015.2 1016.4 0.2
26/04:00am 8.6 3.8 4.6 76 1.8 NW 19 24 10 13 1015.2 1016.4 0.2
26/03:30am 9.1 4.3 4.7 74 2.0 NW 19 22 10 12 1015.4 1016.6 0.2
26/03:00am 9.0 4.2 4.8 75 1.9 NW 19 22 10 12 1015.8 1017.0 0.2
26/02:30am 9.2 5.0 5.6 78 1.7 WNW 17 28 9 15 1016.2 1017.3 0.2
26/02:00am 9.8 6.1 6.3 79 1.7 WNW 15 22 8 12 1016.6 1017.8 0.2
26/01:30am 10.1 5.6 5.9 75 2.0 WNW 19 30 10 16 1016.6 1017.8 0.0
26/01:00am 10.1 5.6 4.3 67 2.7 NW 17 22 9 12 1016.4 1017.5 0.0
26/12:30am 10.8 5.8 3.6 61 3.3 NW 19 24 10 13 1016.3 1017.4 0.0
26/12:00am 10.9 3.8 3.5 60 3.4 NW 30 35 16 19 1016.5 1017.6 0.0
 
Date/Time
EST
Temp
°C
App
Temp
°C
Dew
Point
°C
Rel
Hum
%
Delta-T
°C
Wind Press
QNH
hPa
Press
MSL
hPa
Rain since
9am
mm
Dir  Spd
km/h
Gust
km/h
Spd
kts
Gust
kts
25/11:30pm 10.9 4.9 3.5 60 3.4 NW 24 33 13 18 1016.9 1018.1 0.0
25/11:00pm 11.0 5.0 3.5 60 3.4 NW 24 33 13 18 1016.7 1017.9 0.0
25/10:30pm 10.0 4.4 3.7 65 2.9 NW 22 28 12 15 1017.0 1018.2 0.0
25/10:00pm 9.4 4.9 4.0 69 2.4 WNW 17 26 9 14 1017.3 1018.5 0.0
25/09:30pm 9.5 5.3 3.9 68 2.5 WNW 15 26 8 14 1017.1 1018.3 0.0
25/09:00pm 8.9 5.9 3.9 71 2.3 N 9 15 5 8 1017.0 1018.2 0.0
25/08:30pm 8.7 5.3 4.1 73 2.1 NNW 11 15 6 8 1017.4 1018.6 0.0
25/08:00pm 9.0 4.9 4.2 72 2.2 N 15 19 8 10 1017.6 1018.8 0.0
25/07:30pm 10.1 5.7 4.5 68 2.6 N 17 20 9 11 1018.1 1019.3 0.0
25/07:00pm 10.5 5.7 4.6 67 2.7 N 19 30 10 16 1018.0 1019.1 0.0

Other Formats:

Comma delimited format used in spreadsheet applications
http://www.bom.gov.au/fwo/IDN60801/IDN60801.94926.axf

JavaScript Object Notation format (JSON) in row-major order
http://www.bom.gov.au/fwo/IDN60801/IDN60801.94926.json